createdAt,value
2023-03-26T00:02:40.254Z,96408.00
2023-03-26T00:07:41.610Z,96409.00
2023-03-26T00:12:42.609Z,96426.00
2023-03-26T00:17:45.636Z,96411.00
2023-03-26T00:22:47.126Z,96416.00
2023-03-26T00:27:48.779Z,96419.00
2023-03-26T00:32:53.970Z,96413.00
2023-03-26T00:37:55.106Z,96409.00
2023-03-26T00:42:56.277Z,96412.00
2023-03-26T00:47:57.166Z,96402.00
2023-03-26T00:52:58.149Z,96402.00
2023-03-26T00:57:59.000Z,96404.00
2023-03-26T01:03:03.841Z,96401.00
2023-03-26T01:08:53.876Z,96391.00
2023-03-26T01:14:17.384Z,96388.00
2023-03-26T01:20:57.914Z,96381.00
2023-03-26T01:27:43.642Z,96360.00
2023-03-26T01:33:56.241Z,96356.00
2023-03-26T01:39:17.920Z,96356.00
2023-03-26T01:44:37.535Z,96343.00
2023-03-26T01:49:38.422Z,96321.00
2023-03-26T01:54:40.522Z,96321.00
2023-03-26T02:00:06.304Z,96317.00
2023-03-26T02:05:26.658Z,96305.00
2023-03-26T02:10:30.275Z,96306.00
2023-03-26T02:15:32.234Z,96304.00
2023-03-26T02:20:33.041Z,96297.00
2023-03-26T02:25:35.018Z,96293.00
2023-03-26T02:30:36.999Z,96286.00
2023-03-26T02:35:38.051Z,96275.00
2023-03-26T02:40:39.567Z,96269.00
2023-03-26T02:45:40.836Z,96263.00
2023-03-26T02:51:01.334Z,96264.00
2023-03-26T02:56:13.292Z,96248.00
2023-03-26T03:01:22.644Z,96241.00
2023-03-26T03:06:30.156Z,96235.00
2023-03-26T03:11:32.639Z,96227.00
2023-03-26T03:16:33.679Z,96223.00
2023-03-26T03:21:41.551Z,96216.00
2023-03-26T03:26:44.981Z,96200.00
2023-03-26T03:31:53.246Z,96200.00
2023-03-26T03:37:18.501Z,96190.00
2023-03-26T03:42:24.461Z,96187.00
2023-03-26T03:47:27.312Z,96185.00
2023-03-26T03:52:28.683Z,96177.00
2023-03-26T03:57:32.643Z,96160.00
2023-03-26T04:02:37.362Z,96149.00
2023-03-26T04:07:39.528Z,96142.00
2023-03-26T04:13:25.742Z,96135.00
2023-03-26T04:19:28.733Z,96124.00
2023-03-26T04:24:29.597Z,96118.00
2023-03-26T04:30:19.829Z,96096.00
2023-03-26T04:35:25.155Z,96074.00
2023-03-26T04:40:29.715Z,96053.00
2023-03-26T04:46:17.465Z,96054.00
2023-03-26T04:51:29.960Z,96041.00
2023-03-26T04:57:02.112Z,96027.00
2023-03-26T05:02:26.295Z,96026.00
2023-03-26T05:07:28.806Z,96025.00
2023-03-26T05:12:31.051Z,96021.00
2023-03-26T05:17:40.736Z,96025.00
2023-03-26T05:22:43.706Z,96018.00
2023-03-26T05:27:50.692Z,96010.00
2023-03-26T05:32:52.872Z,96000.00
2023-03-26T05:37:57.911Z,95989.00
2023-03-26T05:42:59.443Z,95976.00
2023-03-26T05:48:13.648Z,95975.00
2023-03-26T05:53:14.865Z,95982.00
2023-03-26T05:59:03.957Z,95973.00
2023-03-26T06:04:23.407Z,95964.00
2023-03-26T06:09:40.188Z,95955.00
2023-03-26T06:14:45.124Z,95949.00
2023-03-26T06:19:53.395Z,95943.00
2023-03-26T06:25:06.699Z,95933.00
2023-03-26T06:30:17.830Z,95918.00
2023-03-26T06:35:29.209Z,95911.00
2023-03-26T06:40:31.795Z,95900.00
2023-03-26T06:45:51.693Z,95893.00
2023-03-26T06:51:11.083Z,95882.00
2023-03-26T06:56:30.820Z,95870.00
2023-03-26T07:01:48.292Z,95850.00
2023-03-26T07:08:10.676Z,95850.00
2023-03-26T07:13:29.987Z,95844.00
2023-03-26T07:18:49.462Z,95831.00
2023-03-26T07:23:56.586Z,95817.00
2023-03-26T07:30:21.803Z,95811.00
2023-03-26T07:35:49.971Z,95810.00
2023-03-26T07:50:27.037Z,95797.00
2023-03-26T07:56:19.603Z,95797.00
2023-03-26T08:02:51.947Z,95783.00
2023-03-26T08:11:27.739Z,95777.00
2023-03-26T08:16:53.377Z,95767.00
2023-03-26T08:22:01.445Z,95756.00
2023-03-26T08:27:31.312Z,95762.00
2023-03-26T08:32:32.931Z,95744.00
2023-03-26T08:37:33.763Z,95730.00
2023-03-26T08:49:38.963Z,95733.00
2023-03-26T08:55:02.781Z,95730.00
2023-03-26T09:01:44.717Z,95719.00
2023-03-26T09:08:25.118Z,95710.00
2023-03-26T09:14:23.787Z,95718.00
2023-03-26T09:20:06.721Z,95716.00
2023-03-26T09:25:47.664Z,95710.00
2023-03-26T09:33:55.146Z,95693.00
2023-03-26T09:40:00.888Z,95696.00
2023-03-26T09:46:54.092Z,95688.00
2023-03-26T09:52:56.286Z,95690.00
2023-03-26T09:58:32.574Z,95683.00
2023-03-26T10:04:01.138Z,95666.00
2023-03-26T10:09:28.093Z,95670.00
2023-03-26T10:20:08.238Z,95667.00
2023-03-26T10:28:05.330Z,95663.00
2023-03-26T10:33:29.960Z,95660.00
2023-03-26T10:40:05.201Z,95630.00
2023-03-26T10:45:32.429Z,95639.00
2023-03-26T10:53:57.364Z,95649.00
2023-03-26T10:59:04.166Z,95629.00
2023-03-26T11:04:20.837Z,95643.00
2023-03-26T11:09:37.884Z,95633.00
2023-03-26T11:14:57.853Z,95646.00
2023-03-26T11:21:39.533Z,95627.00
2023-03-26T11:30:28.933Z,95627.00
2023-03-26T11:35:40.903Z,95623.00
2023-03-26T11:40:49.803Z,95631.00
2023-03-26T11:46:12.182Z,95620.00
2023-03-26T11:51:22.672Z,95618.00
2023-03-26T11:57:05.195Z,95614.00
2023-03-26T12:02:22.666Z,95608.00
2023-03-26T12:07:34.297Z,95616.00
2023-03-26T12:12:41.901Z,95616.00
2023-03-26T12:17:51.768Z,95616.00
2023-03-26T12:22:58.599Z,95614.00
2023-03-26T12:28:30.208Z,95610.00
2023-03-26T12:33:37.988Z,95597.00
2023-03-26T12:38:39.924Z,95591.00
2023-03-26T12:44:54.242Z,95600.00
2023-03-26T12:50:02.754Z,95587.00
2023-03-26T12:55:20.872Z,95619.00
2023-03-26T13:02:21.845Z,95625.00
2023-03-26T13:07:57.042Z,95602.00
2023-03-26T13:15:59.027Z,95603.00
2023-03-26T13:21:25.905Z,95595.00
2023-03-26T13:28:05.565Z,95590.00
2023-03-26T13:36:21.939Z,95581.00
2023-03-26T13:41:50.941Z,95573.00
2023-03-26T13:46:59.093Z,95565.00
2023-03-26T13:52:11.169Z,95553.00
2023-03-26T13:58:49.959Z,95558.00
2023-03-26T14:04:00.305Z,95555.00
2023-03-26T14:09:16.984Z,95546.00
2023-03-26T14:14:49.114Z,95557.00
2023-03-26T14:21:43.241Z,95552.00
2023-03-26T14:27:12.419Z,95545.00
2023-03-26T14:32:51.344Z,95545.00
2023-03-26T14:41:10.165Z,95538.00
2023-03-26T14:47:37.509Z,95531.00
2023-03-26T14:52:52.587Z,95554.00
2023-03-26T15:01:14.064Z,95568.00
2023-03-26T15:09:45.515Z,95595.00
2023-03-26T15:15:25.162Z,95642.00
2023-03-26T15:20:56.291Z,95627.00
2023-03-26T15:26:45.138Z,95612.00
2023-03-26T15:33:38.172Z,95603.00
2023-03-26T15:42:08.413Z,95603.00
2023-03-26T15:48:42.818Z,95597.00
2023-03-26T15:56:48.421Z,95609.00
2023-03-26T16:02:09.257Z,95628.00
2023-03-26T16:07:47.348Z,95633.00
2023-03-26T16:13:47.678Z,95635.00
2023-03-26T16:19:30.591Z,95632.00
2023-03-26T16:24:34.507Z,95617.00
2023-03-26T16:30:30.144Z,95620.00
2023-03-26T16:36:01.134Z,95627.00
2023-03-26T16:41:16.902Z,95627.00
2023-03-26T16:46:51.226Z,95637.00
2023-03-26T16:53:00.221Z,95639.00
2023-03-26T16:58:27.243Z,95639.00
2023-03-26T17:04:37.566Z,95661.00
2023-03-26T17:12:03.873Z,95665.00
2023-03-26T17:18:42.762Z,95667.00
2023-03-26T17:25:43.967Z,95663.00
2023-03-26T17:31:02.689Z,95674.00
2023-03-26T17:36:28.624Z,95676.00
2023-03-26T17:41:54.151Z,95672.00
2023-03-26T17:46:56.946Z,95677.00
2023-03-26T17:52:03.576Z,95686.00
2023-03-26T17:57:20.600Z,95691.00
2023-03-26T18:02:32.603Z,95697.00
2023-03-26T18:08:07.448Z,95696.00
2023-03-26T18:15:12.602Z,95706.00
2023-03-26T18:20:26.202Z,95701.00
2023-03-26T18:25:33.054Z,95701.00
2023-03-26T18:30:46.200Z,95699.00
2023-03-26T18:35:55.864Z,95705.00
2023-03-26T18:40:58.431Z,95707.00
2023-03-26T18:45:59.997Z,95717.00
2023-03-26T18:51:04.945Z,95724.00
2023-03-26T18:56:28.160Z,95728.00
2023-03-26T19:01:32.580Z,95728.00
2023-03-26T19:06:38.385Z,95739.00
2023-03-26T19:11:41.768Z,95736.00
2023-03-26T19:16:46.823Z,95746.00
2023-03-26T19:21:48.085Z,95757.00
2023-03-26T19:26:50.123Z,95753.00
2023-03-26T19:31:52.498Z,95759.00
2023-03-26T19:37:01.243Z,95759.00
2023-03-26T19:42:05.727Z,95760.00
2023-03-26T19:47:26.807Z,95757.00
2023-03-26T19:52:36.025Z,95768.00
2023-03-26T19:57:37.161Z,95776.00
2023-03-26T20:02:38.590Z,95781.00
2023-03-26T20:07:39.527Z,95790.00
2023-03-26T20:12:40.346Z,95796.00
2023-03-26T20:17:42.064Z,95816.00
2023-03-26T20:22:46.160Z,95829.00
2023-03-26T20:27:47.019Z,95828.00
2023-03-26T20:32:49.553Z,95844.00
2023-03-26T20:38:14.131Z,95852.00
2023-03-26T20:43:17.666Z,95878.00
2023-03-26T20:48:18.425Z,95893.00
2023-03-26T20:53:19.652Z,95904.00
2023-03-26T20:58:30.728Z,95908.00
2023-03-26T21:03:32.992Z,95902.00
2023-03-26T21:08:34.100Z,95904.00
2023-03-26T21:13:49.159Z,95919.00
2023-03-26T21:18:50.965Z,95925.00
2023-03-26T21:24:04.264Z,95924.00
2023-03-26T21:29:05.213Z,95935.00
2023-03-26T21:34:07.627Z,95950.00
2023-03-26T21:39:10.514Z,95954.00
2023-03-26T21:44:13.388Z,95965.00
2023-03-26T21:49:16.431Z,95974.00
2023-03-26T21:54:27.579Z,95986.00
2023-03-26T22:04:30.794Z,95999.00
2023-03-26T22:09:36.476Z,96016.00
2023-03-26T22:14:38.041Z,96031.00
2023-03-26T22:19:38.850Z,96051.00
2023-03-26T22:24:39.796Z,96070.00
2023-03-26T22:29:41.424Z,96071.00
2023-03-26T22:34:44.309Z,96090.00
2023-03-26T22:39:45.057Z,96110.00
2023-03-26T22:44:46.027Z,96106.00
2023-03-26T22:49:46.810Z,96118.00
2023-03-26T22:54:47.599Z,96116.00
2023-03-26T22:59:48.718Z,96122.00
2023-03-26T23:04:49.842Z,96138.00
2023-03-26T23:09:52.271Z,96138.00
2023-03-26T23:14:53.117Z,96145.00
2023-03-26T23:19:53.930Z,96155.00
2023-03-26T23:24:54.827Z,96175.00
2023-03-26T23:29:55.816Z,96178.00
2023-03-26T23:34:57.043Z,96190.00
2023-03-26T23:39:58.480Z,96192.00
2023-03-26T23:44:59.208Z,96217.00
2023-03-26T23:50:03.784Z,96223.00
2023-03-26T23:55:05.171Z,96239.00
